sensor_id;sensor_type;location;lat;lon;timestamp;temperature;humidity
34726;DHT22;20951;50.818;4.344;2023-05-16T00:02:00;10.20;99.90
34726;DHT22;20951;50.818;4.344;2023-05-16T00:04:32;10.20;99.90
34726;DHT22;20951;50.818;4.344;2023-05-16T00:07:03;10.10;99.90
34726;DHT22;20951;50.818;4.344;2023-05-16T00:09:33;10.00;99.90
34726;DHT22;20951;50.818;4.344;2023-05-16T00:12:02;10.00;99.90
34726;DHT22;20951;50.818;4.344;2023-05-16T00:14:32;10.00;99.90
34726;DHT22;20951;50.818;4.344;2023-05-16T00:17:02;10.00;99.90
34726;DHT22;20951;50.818;4.344;2023-05-16T00:19:37;9.90;99.90
34726;DHT22;20951;50.818;4.344;2023-05-16T00:22:08;9.80;99.90
34726;DHT22;20951;50.818;4.344;2023-05-16T00:24:39;9.80;99.90
34726;DHT22;20951;50.818;4.344;2023-05-16T00:27:10;9.90;99.90
34726;DHT22;20951;50.818;4.344;2023-05-16T00:29:40;10.00;99.90
34726;DHT22;20951;50.818;4.344;2023-05-16T00:32:10;9.90;99.90
34726;DHT22;20951;50.818;4.344;2023-05-16T00:34:41;9.90;99.90
34726;DHT22;20951;50.818;4.344;2023-05-16T00:37:12;9.90;99.90
34726;DHT22;20951;50.818;4.344;2023-05-16T00:39:43;9.80;99.90
34726;DHT22;20951;50.818;4.344;2023-05-16T00:42:13;9.80;99.90
34726;DHT22;20951;50.818;4.344;2023-05-16T00:44:44;9.80;99.90
34726;DHT22;20951;50.818;4.344;2023-05-16T00:47:15;9.80;99.90
34726;DHT22;20951;50.818;4.344;2023-05-16T00:49:46;9.80;99.90
34726;DHT22;20951;50.818;4.344;2023-05-16T00:52:17;9.70;99.90
34726;DHT22;20951;50.818;4.344;2023-05-16T00:54:49;9.70;99.90
34726;DHT22;20951;50.818;4.344;2023-05-16T00:57:19;9.60;99.90
34726;DHT22;20951;50.818;4.344;2023-05-16T00:59:49;9.50;99.90
34726;DHT22;20951;50.818;4.344;2023-05-16T01:02:19;9.50;99.90
34726;DHT22;20951;50.818;4.344;2023-05-16T01:04:50;9.50;99.90
34726;DHT22;20951;50.818;4.344;2023-05-16T01:07:22;9.50;99.90
34726;DHT22;20951;50.818;4.344;2023-05-16T01:09:52;9.40;99.90
34726;DHT22;20951;50.818;4.344;2023-05-16T01:12:36;9.50;99.90
34726;DHT22;20951;50.818;4.344;2023-05-16T01:15:31;9.40;99.90
34726;DHT22;20951;50.818;4.344;2023-05-16T01:18:10;9.40;99.90
34726;DHT22;20951;50.818;4.344;2023-05-16T01:20:59;9.40;99.90
34726;DHT22;20951;50.818;4.344;2023-05-16T01:26:24;9.40;99.90
34726;DHT22;20951;50.818;4.344;2023-05-16T01:28:55;9.30;99.90
34726;DHT22;20951;50.818;4.344;2023-05-16T01:31:25;9.30;99.90
34726;DHT22;20951;50.818;4.344;2023-05-16T01:33:56;9.20;99.90
34726;DHT22;20951;50.818;4.344;2023-05-16T01:36:35;9.20;99.90
34726;DHT22;20951;50.818;4.344;2023-05-16T01:39:19;9.20;99.90
34726;DHT22;20951;50.818;4.344;2023-05-16T01:42:26;9.40;99.90
34726;DHT22;20951;50.818;4.344;2023-05-16T01:47:37;9.30;99.90
34726;DHT22;20951;50.818;4.344;2023-05-16T01:50:14;9.20;99.90
34726;DHT22;20951;50.818;4.344;2023-05-16T01:53:07;9.20;99.90
34726;DHT22;20951;50.818;4.344;2023-05-16T01:55:46;9.20;99.90
34726;DHT22;20951;50.818;4.344;2023-05-16T01:58:17;9.20;99.90
34726;DHT22;20951;50.818;4.344;2023-05-16T02:00:48;9.30;99.90
34726;DHT22;20951;50.818;4.344;2023-05-16T02:03:19;9.30;99.90
34726;DHT22;20951;50.818;4.344;2023-05-16T02:05:50;9.20;99.90
34726;DHT22;20951;50.818;4.344;2023-05-16T02:08:20;9.20;99.90
34726;DHT22;20951;50.818;4.344;2023-05-16T02:10:51;9.30;99.90
34726;DHT22;20951;50.818;4.344;2023-05-16T02:13:25;9.20;99.90
34726;DHT22;20951;50.818;4.344;2023-05-16T02:15:56;9.20;99.90
34726;DHT22;20951;50.818;4.344;2023-05-16T02:18:26;9.20;99.90
34726;DHT22;20951;50.818;4.344;2023-05-16T02:20:56;9.10;99.90
34726;DHT22;20951;50.818;4.344;2023-05-16T02:23:27;9.20;99.90
34726;DHT22;20951;50.818;4.344;2023-05-16T02:25:57;9.10;99.90
34726;DHT22;20951;50.818;4.344;2023-05-16T02:28:27;9.10;99.90
34726;DHT22;20951;50.818;4.344;2023-05-16T02:31:01;9.30;99.90
34726;DHT22;20951;50.818;4.344;2023-05-16T02:33:32;9.20;99.90
34726;DHT22;20951;50.818;4.344;2023-05-16T02:36:01;9.20;99.90
34726;DHT22;20951;50.818;4.344;2023-05-16T02:38:32;9.20;99.90
34726;DHT22;20951;50.818;4.344;2023-05-16T02:41:02;9.20;99.90
34726;DHT22;20951;50.818;4.344;2023-05-16T02:43:33;9.20;99.90
34726;DHT22;20951;50.818;4.344;2023-05-16T02:46:26;9.10;99.90
34726;DHT22;20951;50.818;4.344;2023-05-16T02:48:56;9.10;99.90
34726;DHT22;20951;50.818;4.344;2023-05-16T02:51:26;9.00;99.90
34726;DHT22;20951;50.818;4.344;2023-05-16T02:53:56;8.90;99.90
34726;DHT22;20951;50.818;4.344;2023-05-16T02:56:28;8.90;99.90
34726;DHT22;20951;50.818;4.344;2023-05-16T02:58:58;8.90;99.90
34726;DHT22;20951;50.818;4.344;2023-05-16T03:01:28;8.80;99.90
34726;DHT22;20951;50.818;4.344;2023-05-16T03:03:59;8.90;99.90
34726;DHT22;20951;50.818;4.344;2023-05-16T03:06:29;8.80;99.90
34726;DHT22;20951;50.818;4.344;2023-05-16T03:09:00;8.80;99.90
34726;DHT22;20951;50.818;4.344;2023-05-16T03:11:30;8.80;99.90
34726;DHT22;20951;50.818;4.344;2023-05-16T03:14:00;8.80;99.90
34726;DHT22;20951;50.818;4.344;2023-05-16T03:16:31;8.70;99.90
34726;DHT22;20951;50.818;4.344;2023-05-16T03:19:03;8.70;99.90
34726;DHT22;20951;50.818;4.344;2023-05-16T03:21:34;8.70;99.90
34726;DHT22;20951;50.818;4.344;2023-05-16T03:24:05;8.70;99.90
34726;DHT22;20951;50.818;4.344;2023-05-16T03:26:35;8.70;99.90
34726;DHT22;20951;50.818;4.344;2023-05-16T03:29:05;8.80;99.90
34726;DHT22;20951;50.818;4.344;2023-05-16T03:31:35;8.70;99.90
34726;DHT22;20951;50.818;4.344;2023-05-16T03:34:05;8.70;99.90
34726;DHT22;20951;50.818;4.344;2023-05-16T03:36:35;8.70;99.90
34726;DHT22;20951;50.818;4.344;2023-05-16T03:39:05;8.70;99.90
34726;DHT22;20951;50.818;4.344;2023-05-16T03:41:36;8.70;99.90
34726;DHT22;20951;50.818;4.344;2023-05-16T03:44:07;8.60;99.90
34726;DHT22;20951;50.818;4.344;2023-05-16T03:46:38;8.60;99.90
34726;DHT22;20951;50.818;4.344;2023-05-16T03:49:09;8.60;99.90
34726;DHT22;20951;50.818;4.344;2023-05-16T03:51:40;8.60;99.90
34726;DHT22;20951;50.818;4.344;2023-05-16T03:54:06;8.60;99.90
34726;DHT22;20951;50.818;4.344;2023-05-16T03:56:34;8.70;99.90
34726;DHT22;20951;50.818;4.344;2023-05-16T03:59:05;8.60;99.90
34726;DHT22;20951;50.818;4.344;2023-05-16T04:01:36;8.80;99.90
34726;DHT22;20951;50.818;4.344;2023-05-16T04:04:07;8.70;99.90
34726;DHT22;20951;50.818;4.344;2023-05-16T04:06:38;8.80;99.90
34726;DHT22;20951;50.818;4.344;2023-05-16T04:09:09;8.90;99.90
34726;DHT22;20951;50.818;4.344;2023-05-16T04:11:40;9.00;99.90
34726;DHT22;20951;50.818;4.344;2023-05-16T04:14:11;8.90;99.90
34726;DHT22;20951;50.818;4.344;2023-05-16T04:16:42;8.80;99.90
34726;DHT22;20951;50.818;4.344;2023-05-16T04:19:13;8.90;99.90
34726;DHT22;20951;50.818;4.344;2023-05-16T04:21:43;8.90;99.90
34726;DHT22;20951;50.818;4.344;2023-05-16T04:24:14;9.00;99.90
34726;DHT22;20951;50.818;4.344;2023-05-16T04:26:45;9.00;99.90
34726;DHT22;20951;50.818;4.344;2023-05-16T04:29:15;9.00;99.90
34726;DHT22;20951;50.818;4.344;2023-05-16T04:31:44;9.00;99.90
34726;DHT22;20951;50.818;4.344;2023-05-16T04:34:12;9.10;99.90
34726;DHT22;20951;50.818;4.344;2023-05-16T04:36:44;9.10;99.90
34726;DHT22;20951;50.818;4.344;2023-05-16T04:39:14;9.10;99.90
34726;DHT22;20951;50.818;4.344;2023-05-16T04:41:45;9.10;99.90
34726;DHT22;20951;50.818;4.344;2023-05-16T04:44:14;9.20;99.90
34726;DHT22;20951;50.818;4.344;2023-05-16T04:46:45;9.00;99.90
34726;DHT22;20951;50.818;4.344;2023-05-16T04:49:15;9.10;99.90
34726;DHT22;20951;50.818;4.344;2023-05-16T04:51:47;9.10;99.90
34726;DHT22;20951;50.818;4.344;2023-05-16T04:54:17;9.00;99.90
34726;DHT22;20951;50.818;4.344;2023-05-16T04:56:48;9.10;99.90
34726;DHT22;20951;50.818;4.344;2023-05-16T04:59:19;9.00;99.90
34726;DHT22;20951;50.818;4.344;2023-05-16T05:01:50;9.20;99.90
34726;DHT22;20951;50.818;4.344;2023-05-16T05:04:21;9.30;99.90
34726;DHT22;20951;50.818;4.344;2023-05-16T05:06:52;9.40;99.90
34726;DHT22;20951;50.818;4.344;2023-05-16T05:09:22;9.40;99.90
34726;DHT22;20951;50.818;4.344;2023-05-16T05:11:52;9.30;99.90
34726;DHT22;20951;50.818;4.344;2023-05-16T05:14:23;9.40;99.90
34726;DHT22;20951;50.818;4.344;2023-05-16T05:16:53;9.40;99.90
34726;DHT22;20951;50.818;4.344;2023-05-16T05:19:24;9.40;99.90
34726;DHT22;20951;50.818;4.344;2023-05-16T05:21:54;9.60;99.90
34726;DHT22;20951;50.818;4.344;2023-05-16T05:24:25;9.70;99.90
34726;DHT22;20951;50.818;4.344;2023-05-16T05:26:55;9.80;99.90
34726;DHT22;20951;50.818;4.344;2023-05-16T05:29:26;9.80;99.90
34726;DHT22;20951;50.818;4.344;2023-05-16T05:31:56;9.80;99.90
34726;DHT22;20951;50.818;4.344;2023-05-16T05:34:28;9.80;99.90
34726;DHT22;20951;50.818;4.344;2023-05-16T05:36:58;9.80;99.90
34726;DHT22;20951;50.818;4.344;2023-05-16T05:39:25;9.80;99.90
34726;DHT22;20951;50.818;4.344;2023-05-16T05:41:51;9.90;99.90
34726;DHT22;20951;50.818;4.344;2023-05-16T05:44:18;10.20;99.90
34726;DHT22;20951;50.818;4.344;2023-05-16T05:46:46;10.30;99.90
34726;DHT22;20951;50.818;4.344;2023-05-16T05:49:17;10.40;99.90
34726;DHT22;20951;50.818;4.344;2023-05-16T05:51:48;10.40;99.90
34726;DHT22;20951;50.818;4.344;2023-05-16T05:54:22;10.60;99.90
34726;DHT22;20951;50.818;4.344;2023-05-16T05:56:50;10.70;99.90
34726;DHT22;20951;50.818;4.344;2023-05-16T05:59:18;11.20;99.90
34726;DHT22;20951;50.818;4.344;2023-05-16T06:01:49;12.10;99.90
34726;DHT22;20951;50.818;4.344;2023-05-16T06:04:19;13.40;99.90
34726;DHT22;20951;50.818;4.344;2023-05-16T06:06:48;14.20;99.90
34726;DHT22;20951;50.818;4.344;2023-05-16T06:09:14;15.40;99.90
34726;DHT22;20951;50.818;4.344;2023-05-16T06:11:41;16.30;99.90
34726;DHT22;20951;50.818;4.344;2023-05-16T06:14:10;16.50;99.90
34726;DHT22;20951;50.818;4.344;2023-05-16T06:16:38;16.10;99.90
34726;DHT22;20951;50.818;4.344;2023-05-16T06:19:08;14.70;99.90
34726;DHT22;20951;50.818;4.344;2023-05-16T06:21:42;14.00;99.90
34726;DHT22;20951;50.818;4.344;2023-05-16T06:24:12;13.80;99.90
34726;DHT22;20951;50.818;4.344;2023-05-16T06:26:42;13.90;99.90
34726;DHT22;20951;50.818;4.344;2023-05-16T06:29:16;13.60;99.90
34726;DHT22;20951;50.818;4.344;2023-05-16T06:31:47;13.10;99.90
34726;DHT22;20951;50.818;4.344;2023-05-16T06:34:17;12.60;99.90
34726;DHT22;20951;50.818;4.344;2023-05-16T06:36:54;12.30;99.90
34726;DHT22;20951;50.818;4.344;2023-05-16T06:39:24;12.60;99.90
34726;DHT22;20951;50.818;4.344;2023-05-16T06:41:54;13.10;99.90
34726;DHT22;20951;50.818;4.344;2023-05-16T06:44:24;13.20;99.90
34726;DHT22;20951;50.818;4.344;2023-05-16T06:46:55;13.20;99.90
34726;DHT22;20951;50.818;4.344;2023-05-16T06:49:26;13.20;99.90
34726;DHT22;20951;50.818;4.344;2023-05-16T06:51:56;13.00;99.90
34726;DHT22;20951;50.818;4.344;2023-05-16T06:54:25;12.80;99.90
34726;DHT22;20951;50.818;4.344;2023-05-16T06:56:51;13.40;99.90
34726;DHT22;20951;50.818;4.344;2023-05-16T06:59:18;13.80;99.90
34726;DHT22;20951;50.818;4.344;2023-05-16T07:01:50;13.80;99.90
34726;DHT22;20951;50.818;4.344;2023-05-16T07:04:20;14.10;99.90
34726;DHT22;20951;50.818;4.344;2023-05-16T07:06:51;15.10;99.90
34726;DHT22;20951;50.818;4.344;2023-05-16T07:09:21;16.10;99.90
34726;DHT22;20951;50.818;4.344;2023-05-16T07:11:51;16.70;99.90
34726;DHT22;20951;50.818;4.344;2023-05-16T07:14:23;17.00;99.90
34726;DHT22;20951;50.818;4.344;2023-05-16T07:16:53;16.50;99.90
34726;DHT22;20951;50.818;4.344;2023-05-16T07:19:24;15.90;99.90
34726;DHT22;20951;50.818;4.344;2023-05-16T07:21:55;16.30;99.90
34726;DHT22;20951;50.818;4.344;2023-05-16T07:24:25;16.30;99.90
34726;DHT22;20951;50.818;4.344;2023-05-16T07:26:55;15.50;99.90
34726;DHT22;20951;50.818;4.344;2023-05-16T07:29:26;14.80;99.90
34726;DHT22;20951;50.818;4.344;2023-05-16T07:31:56;15.40;99.90
34726;DHT22;20951;50.818;4.344;2023-05-16T07:34:26;16.20;99.90
34726;DHT22;20951;50.818;4.344;2023-05-16T07:36:56;16.70;99.90
34726;DHT22;20951;50.818;4.344;2023-05-16T07:39:26;16.50;99.90
34726;DHT22;20951;50.818;4.344;2023-05-16T07:41:55;16.30;99.90
34726;DHT22;20951;50.818;4.344;2023-05-16T07:44:22;16.20;99.90
34726;DHT22;20951;50.818;4.344;2023-05-16T07:46:50;17.30;99.90
34726;DHT22;20951;50.818;4.344;2023-05-16T07:49:17;18.40;99.90
34726;DHT22;20951;50.818;4.344;2023-05-16T07:51:45;19.10;99.90
34726;DHT22;20951;50.818;4.344;2023-05-16T07:54:15;17.60;99.90
34726;DHT22;20951;50.818;4.344;2023-05-16T07:56:46;17.10;99.90
34726;DHT22;20951;50.818;4.344;2023-05-16T07:59:16;17.80;99.90
34726;DHT22;20951;50.818;4.344;2023-05-16T08:01:47;19.60;99.90
34726;DHT22;20951;50.818;4.344;2023-05-16T08:04:17;21.10;99.90
34726;DHT22;20951;50.818;4.344;2023-05-16T08:06:48;21.50;97.40
34726;DHT22;20951;50.818;4.344;2023-05-16T08:09:19;21.00;97.40
34726;DHT22;20951;50.818;4.344;2023-05-16T08:11:49;21.20;97.30
34726;DHT22;20951;50.818;4.344;2023-05-16T08:14:21;20.70;97.40
34726;DHT22;20951;50.818;4.344;2023-05-16T08:16:52;20.70;97.20
34726;DHT22;20951;50.818;4.344;2023-05-16T08:19:23;21.50;95.70
34726;DHT22;20951;50.818;4.344;2023-05-16T08:21:54;21.60;94.70
34726;DHT22;20951;50.818;4.344;2023-05-16T08:24:24;21.20;94.80
34726;DHT22;20951;50.818;4.344;2023-05-16T08:26:54;21.20;94.90
34726;DHT22;20951;50.818;4.344;2023-05-16T08:29:24;20.70;95.50
34726;DHT22;20951;50.818;4.344;2023-05-16T08:31:52;20.50;96.20
34726;DHT22;20951;50.818;4.344;2023-05-16T08:34:19;20.10;96.40
34726;DHT22;20951;50.818;4.344;2023-05-16T08:36:48;19.40;98.10
34726;DHT22;20951;50.818;4.344;2023-05-16T08:39:17;18.30;99.90
34726;DHT22;20951;50.818;4.344;2023-05-16T08:41:47;16.60;99.90
34726;DHT22;20951;50.818;4.344;2023-05-16T08:44:17;15.60;99.90
34726;DHT22;20951;50.818;4.344;2023-05-16T08:46:51;15.20;99.90
34726;DHT22;20951;50.818;4.344;2023-05-16T08:49:22;14.50;99.90
34726;DHT22;20951;50.818;4.344;2023-05-16T08:51:53;14.50;99.90
34726;DHT22;20951;50.818;4.344;2023-05-16T08:54:24;15.10;99.90
34726;DHT22;20951;50.818;4.344;2023-05-16T08:56:53;15.90;99.90
34726;DHT22;20951;50.818;4.344;2023-05-16T08:59:19;16.70;99.90
34726;DHT22;20951;50.818;4.344;2023-05-16T09:01:45;17.20;99.90
34726;DHT22;20951;50.818;4.344;2023-05-16T09:04:12;17.70;99.90
34726;DHT22;20951;50.818;4.344;2023-05-16T09:06:38;17.90;99.90
34726;DHT22;20951;50.818;4.344;2023-05-16T09:09:04;17.90;99.90
34726;DHT22;20951;50.818;4.344;2023-05-16T09:11:33;17.70;99.90
34726;DHT22;20951;50.818;4.344;2023-05-16T09:13:59;18.10;99.90
34726;DHT22;20951;50.818;4.344;2023-05-16T09:16:25;19.30;99.90
34726;DHT22;20951;50.818;4.344;2023-05-16T09:18:56;21.00;99.20
34726;DHT22;20951;50.818;4.344;2023-05-16T09:21:30;21.40;96.30
34726;DHT22;20951;50.818;4.344;2023-05-16T09:24:06;21.60;95.50
34726;DHT22;20951;50.818;4.344;2023-05-16T09:26:34;22.10;95.30
34726;DHT22;20951;50.818;4.344;2023-05-16T09:29:00;22.40;94.00
34726;DHT22;20951;50.818;4.344;2023-05-16T09:31:28;22.60;93.10
34726;DHT22;20951;50.818;4.344;2023-05-16T09:34:03;21.70;93.10
34726;DHT22;20951;50.818;4.344;2023-05-16T09:36:31;21.10;93.00
34726;DHT22;20951;50.818;4.344;2023-05-16T09:38:57;20.40;94.40
34726;DHT22;20951;50.818;4.344;2023-05-16T09:41:22;20.50;94.90
34726;DHT22;20951;50.818;4.344;2023-05-16T09:43:48;21.00;94.10
34726;DHT22;20951;50.818;4.344;2023-05-16T09:46:15;21.90;93.90
34726;DHT22;20951;50.818;4.344;2023-05-16T09:48:44;22.70;91.80
34726;DHT22;20951;50.818;4.344;2023-05-16T09:51:12;23.00;90.40
34726;DHT22;20951;50.818;4.344;2023-05-16T09:53:42;23.50;90.10
34726;DHT22;20951;50.818;4.344;2023-05-16T09:56:12;23.10;90.00
34726;DHT22;20951;50.818;4.344;2023-05-16T09:58:41;23.60;90.10
34726;DHT22;20951;50.818;4.344;2023-05-16T10:01:09;23.60;88.10
34726;DHT22;20951;50.818;4.344;2023-05-16T10:03:37;22.70;89.10
34726;DHT22;20951;50.818;4.344;2023-05-16T10:06:03;21.30;90.90
34726;DHT22;20951;50.818;4.344;2023-05-16T10:08:31;20.60;91.30
34726;DHT22;20951;50.818;4.344;2023-05-16T10:11:01;20.70;91.10
34726;DHT22;20951;50.818;4.344;2023-05-16T10:13:29;20.90;91.30
34726;DHT22;20951;50.818;4.344;2023-05-16T10:15:57;21.10;91.50
34726;DHT22;20951;50.818;4.344;2023-05-16T10:18:31;21.70;91.90
34726;DHT22;20951;50.818;4.344;2023-05-16T10:21:09;19.70;93.50
34726;DHT22;20951;50.818;4.344;2023-05-16T10:23:41;19.50;93.70
34726;DHT22;20951;50.818;4.344;2023-05-16T10:26:08;19.70;93.40
34726;DHT22;20951;50.818;4.344;2023-05-16T10:28:35;19.30;93.80
34726;DHT22;20951;50.818;4.344;2023-05-16T10:31:01;19.60;93.60
34726;DHT22;20951;50.818;4.344;2023-05-16T10:33:28;19.80;91.80
34726;DHT22;20951;50.818;4.344;2023-05-16T10:35:54;19.20;92.00
34726;DHT22;20951;50.818;4.344;2023-05-16T10:38:21;18.50;92.90
34726;DHT22;20951;50.818;4.344;2023-05-16T10:40:49;18.50;93.70
34726;DHT22;20951;50.818;4.344;2023-05-16T10:43:26;18.60;93.10
34726;DHT22;20951;50.818;4.344;2023-05-16T10:46:03;18.70;93.70
34726;DHT22;20951;50.818;4.344;2023-05-16T10:48:34;18.70;93.60
34726;DHT22;20951;50.818;4.344;2023-05-16T10:51:02;18.60;94.10
34726;DHT22;20951;50.818;4.344;2023-05-16T10:53:29;19.20;93.10
34726;DHT22;20951;50.818;4.344;2023-05-16T11:01:23;19.10;92.50
34726;DHT22;20951;50.818;4.344;2023-05-16T11:06:26;18.20;95.00
34726;DHT22;20951;50.818;4.344;2023-05-16T11:11:42;19.00;92.50
34726;DHT22;20951;50.818;4.344;2023-05-16T11:14:23;19.00;92.80
34726;DHT22;20951;50.818;4.344;2023-05-16T11:16:59;20.30;92.50
34726;DHT22;20951;50.818;4.344;2023-05-16T11:19:40;20.70;91.20
34726;DHT22;20951;50.818;4.344;2023-05-16T11:22:09;20.20;92.00
34726;DHT22;20951;50.818;4.344;2023-05-16T11:24:37;19.30;93.00
34726;DHT22;20951;50.818;4.344;2023-05-16T11:27:05;18.10;94.80
34726;DHT22;20951;50.818;4.344;2023-05-16T11:29:35;18.30;95.60
34726;DHT22;20951;50.818;4.344;2023-05-16T11:32:04;18.60;95.10
34726;DHT22;20951;50.818;4.344;2023-05-16T11:34:31;19.50;92.80
34726;DHT22;20951;50.818;4.344;2023-05-16T11:37:00;19.80;92.60
34726;DHT22;20951;50.818;4.344;2023-05-16T11:39:30;20.80;91.40
34726;DHT22;20951;50.818;4.344;2023-05-16T11:41:56;20.10;92.00
34726;DHT22;20951;50.818;4.344;2023-05-16T11:44:22;18.60;94.30
34726;DHT22;20951;50.818;4.344;2023-05-16T11:46:48;18.50;95.50
34726;DHT22;20951;50.818;4.344;2023-05-16T11:49:13;19.10;93.40
34726;DHT22;20951;50.818;4.344;2023-05-16T11:51:40;18.70;93.50
34726;DHT22;20951;50.818;4.344;2023-05-16T11:54:09;18.50;94.60
34726;DHT22;20951;50.818;4.344;2023-05-16T11:56:35;18.70;95.10
34726;DHT22;20951;50.818;4.344;2023-05-16T11:59:01;19.60;94.40
34726;DHT22;20951;50.818;4.344;2023-05-16T12:01:38;20.90;92.20
34726;DHT22;20951;50.818;4.344;2023-05-16T12:04:13;20.80;91.20
34726;DHT22;20951;50.818;4.344;2023-05-16T12:06:40;21.30;91.00
34726;DHT22;20951;50.818;4.344;2023-05-16T12:09:11;20.70;90.80
34726;DHT22;20951;50.818;4.344;2023-05-16T12:11:42;20.40;91.70
34726;DHT22;20951;50.818;4.344;2023-05-16T12:14:11;19.80;91.80
34726;DHT22;20951;50.818;4.344;2023-05-16T12:16:37;19.50;92.30
34726;DHT22;20951;50.818;4.344;2023-05-16T12:19:04;19.70;92.50
34726;DHT22;20951;50.818;4.344;2023-05-16T12:21:34;19.90;92.00
34726;DHT22;20951;50.818;4.344;2023-05-16T12:24:00;19.80;92.30
34726;DHT22;20951;50.818;4.344;2023-05-16T12:26:30;19.40;92.90
34726;DHT22;20951;50.818;4.344;2023-05-16T12:28:58;18.70;92.80
34726;DHT22;20951;50.818;4.344;2023-05-16T12:31:28;18.30;93.70
34726;DHT22;20951;50.818;4.344;2023-05-16T12:33:56;18.30;94.00
34726;DHT22;20951;50.818;4.344;2023-05-16T12:36:22;18.30;93.40
34726;DHT22;20951;50.818;4.344;2023-05-16T12:38:49;18.60;92.70
34726;DHT22;20951;50.818;4.344;2023-05-16T12:41:20;18.20;92.40
34726;DHT22;20951;50.818;4.344;2023-05-16T12:43:49;18.60;92.10
34726;DHT22;20951;50.818;4.344;2023-05-16T12:46:15;20.10;90.60
34726;DHT22;20951;50.818;4.344;2023-05-16T12:48:41;21.40;85.00
34726;DHT22;20951;50.818;4.344;2023-05-16T12:51:18;22.10;83.50
34726;DHT22;20951;50.818;4.344;2023-05-16T12:53:48;23.30;83.10
34726;DHT22;20951;50.818;4.344;2023-05-16T12:56:14;24.00;80.40
34726;DHT22;20951;50.818;4.344;2023-05-16T12:58:41;22.80;80.80
34726;DHT22;20951;50.818;4.344;2023-05-16T13:01:07;22.00;81.60
34726;DHT22;20951;50.818;4.344;2023-05-16T13:03:34;22.10;82.40
34726;DHT22;20951;50.818;4.344;2023-05-16T13:06:00;23.10;79.80
34726;DHT22;20951;50.818;4.344;2023-05-16T13:08:26;23.40;77.70
34726;DHT22;20951;50.818;4.344;2023-05-16T13:10:53;22.70;78.30
34726;DHT22;20951;50.818;4.344;2023-05-16T13:13:19;22.70;78.50
34726;DHT22;20951;50.818;4.344;2023-05-16T13:15:44;23.60;77.40
34726;DHT22;20951;50.818;4.344;2023-05-16T13:18:10;23.20;76.30
34726;DHT22;20951;50.818;4.344;2023-05-16T13:20:36;23.10;75.20
34726;DHT22;20951;50.818;4.344;2023-05-16T13:23:03;22.70;79.10
34726;DHT22;20951;50.818;4.344;2023-05-16T13:25:30;22.50;79.80
34726;DHT22;20951;50.818;4.344;2023-05-16T13:27:56;22.20;81.40
34726;DHT22;20951;50.818;4.344;2023-05-16T13:30:21;22.00;82.00
34726;DHT22;20951;50.818;4.344;2023-05-16T13:32:47;22.90;80.50
34726;DHT22;20951;50.818;4.344;2023-05-16T13:35:13;23.10;76.80
34726;DHT22;20951;50.818;4.344;2023-05-16T13:37:39;23.40;77.20
34726;DHT22;20951;50.818;4.344;2023-05-16T13:40:06;24.30;76.70
34726;DHT22;20951;50.818;4.344;2023-05-16T13:42:36;23.80;76.00
34726;DHT22;20951;50.818;4.344;2023-05-16T13:45:03;23.40;77.40
34726;DHT22;20951;50.818;4.344;2023-05-16T13:47:29;23.90;77.20
34726;DHT22;20951;50.818;4.344;2023-05-16T13:49:55;24.60;75.60
34726;DHT22;20951;50.818;4.344;2023-05-16T13:52:21;24.10;76.00
34726;DHT22;20951;50.818;4.344;2023-05-16T13:54:47;24.10;76.60
34726;DHT22;20951;50.818;4.344;2023-05-16T13:57:12;23.00;77.00
34726;DHT22;20951;50.818;4.344;2023-05-16T13:59:39;22.10;78.90
34726;DHT22;20951;50.818;4.344;2023-05-16T14:02:05;20.60;81.20
34726;DHT22;20951;50.818;4.344;2023-05-16T14:04:30;20.30;82.60
34726;DHT22;20951;50.818;4.344;2023-05-16T14:06:56;19.60;83.70
34726;DHT22;20951;50.818;4.344;2023-05-16T14:09:22;19.40;86.40
34726;DHT22;20951;50.818;4.344;2023-05-16T14:11:48;20.20;86.30
34726;DHT22;20951;50.818;4.344;2023-05-16T14:14:14;20.60;82.80
34726;DHT22;20951;50.818;4.344;2023-05-16T14:16:40;20.80;82.40
34726;DHT22;20951;50.818;4.344;2023-05-16T14:19:11;20.30;82.00
34726;DHT22;20951;50.818;4.344;2023-05-16T14:21:37;19.90;83.20
34726;DHT22;20951;50.818;4.344;2023-05-16T14:24:03;20.10;83.30
34726;DHT22;20951;50.818;4.344;2023-05-16T14:26:29;20.20;82.90
34726;DHT22;20951;50.818;4.344;2023-05-16T14:28:56;20.20;82.00
34726;DHT22;20951;50.818;4.344;2023-05-16T14:31:22;19.80;82.80
34726;DHT22;20951;50.818;4.344;2023-05-16T14:33:48;19.90;83.00
34726;DHT22;20951;50.818;4.344;2023-05-16T14:36:14;19.70;83.80
34726;DHT22;20951;50.818;4.344;2023-05-16T14:38:40;19.80;83.90
34726;DHT22;20951;50.818;4.344;2023-05-16T14:41:06;19.60;83.00
34726;DHT22;20951;50.818;4.344;2023-05-16T14:43:32;19.20;83.20
34726;DHT22;20951;50.818;4.344;2023-05-16T14:45:58;18.80;85.20
34726;DHT22;20951;50.818;4.344;2023-05-16T14:48:23;18.70;85.50
34726;DHT22;20951;50.818;4.344;2023-05-16T14:50:50;18.70;85.80
34726;DHT22;20951;50.818;4.344;2023-05-16T14:53:16;18.60;85.80
34726;DHT22;20951;50.818;4.344;2023-05-16T14:55:42;18.30;86.80
34726;DHT22;20951;50.818;4.344;2023-05-16T14:58:08;18.40;89.40
34726;DHT22;20951;50.818;4.344;2023-05-16T15:00:34;18.10;88.70
34726;DHT22;20951;50.818;4.344;2023-05-16T15:03:00;17.70;90.80
34726;DHT22;20951;50.818;4.344;2023-05-16T15:05:26;17.40;91.40
34726;DHT22;20951;50.818;4.344;2023-05-16T15:07:53;17.30;92.00
34726;DHT22;20951;50.818;4.344;2023-05-16T15:10:19;17.20;92.00
34726;DHT22;20951;50.818;4.344;2023-05-16T15:12:45;17.00;92.20
34726;DHT22;20951;50.818;4.344;2023-05-16T15:15:11;17.00;92.90
34726;DHT22;20951;50.818;4.344;2023-05-16T15:17:40;17.00;93.00
34726;DHT22;20951;50.818;4.344;2023-05-16T15:20:07;17.00;93.00
34726;DHT22;20951;50.818;4.344;2023-05-16T15:22:37;17.00;92.60
34726;DHT22;20951;50.818;4.344;2023-05-16T15:25:03;17.10;92.60
34726;DHT22;20951;50.818;4.344;2023-05-16T15:27:30;17.40;92.70
34726;DHT22;20951;50.818;4.344;2023-05-16T15:29:56;17.60;92.60
34726;DHT22;20951;50.818;4.344;2023-05-16T15:32:24;17.80;92.40
34726;DHT22;20951;50.818;4.344;2023-05-16T15:34:54;17.90;92.20
34726;DHT22;20951;50.818;4.344;2023-05-16T15:37:25;17.90;92.40
34726;DHT22;20951;50.818;4.344;2023-05-16T15:39:57;17.60;92.50
34726;DHT22;20951;50.818;4.344;2023-05-16T15:42:27;17.70;93.00
34726;DHT22;20951;50.818;4.344;2023-05-16T15:44:56;17.70;93.00
34726;DHT22;20951;50.818;4.344;2023-05-16T15:47:25;17.90;92.30
34726;DHT22;20951;50.818;4.344;2023-05-16T15:49:54;17.60;91.80
34726;DHT22;20951;50.818;4.344;2023-05-16T15:52:25;17.40;92.20
34726;DHT22;20951;50.818;4.344;2023-05-16T15:54:55;17.00;93.10
34726;DHT22;20951;50.818;4.344;2023-05-16T15:57:24;16.90;93.50
34726;DHT22;20951;50.818;4.344;2023-05-16T15:59:52;16.80;93.30
34726;DHT22;20951;50.818;4.344;2023-05-16T16:02:22;16.70;93.90
34726;DHT22;20951;50.818;4.344;2023-05-16T16:04:51;16.70;94.30
34726;DHT22;20951;50.818;4.344;2023-05-16T16:07:20;16.90;94.40